ENFL/FRO METAR and TAF weather

Enter ICAO airport designator
Station Type Date Time Source
ENFL METAR 2022/12/08 13:50 UTC NOAA

ENFL 081350Z 10007KT 9999 -SHSN FEW008 SCT020 BKN033 00/00 Q1000


Station Type Date Time Source
ENFL Decoded METAR 2022/12/08 13:50 UTC NOAA

Floro, Norway (ENFL) 61-35N 005-02E 9M
Dec 08, 2022 - 08:50 AM EST / 2022.12.08 1350 UTC
Wind: from the E (100 degrees) at 8 MPH (7 KT):0
Visibility: greater than 7 mile(s):0
Sky conditions: mostly cloudy
Weather: light snow showers
Temperature: 32 F (0 C)
Windchill: 24 F (-4 C):1
Dew Point: 32 F (0 C)
Relative Humidity: 100%
Pressure (altimeter): 29.53 in. Hg (1000 hPa)
ob: ENFL 081350Z 10007KT 9999 -SHSN FEW008 SCT020 BKN033 00/00 Q1000
cycle: 14

Station Type Date Time Source
ENFL TAF 2010/02/05 07:50 UTC NOAA

METAR ENFL 050750Z 16019KT 140V200 9999 FEW015 SCT030 BKN055 03/M03 Q1011

Example: see airport list